createdAt,value
2018-12-14T00:00:30.532Z,1000.82
2018-12-14T00:01:30.504Z,1000.82
2018-12-14T00:02:30.495Z,1000.79
2018-12-14T00:03:30.481Z,1000.85
2018-12-14T00:04:30.500Z,1000.85
2018-12-14T00:05:30.461Z,1000.85
2018-12-14T00:06:30.476Z,1000.81
2018-12-14T00:07:30.440Z,1000.85
2018-12-14T00:08:30.428Z,1000.89
2018-12-14T00:09:30.416Z,1000.91
2018-12-14T00:10:30.437Z,1000.88
2018-12-14T00:11:30.397Z,1000.92
2018-12-14T00:12:30.408Z,1000.89
2018-12-14T00:13:30.398Z,1000.93
2018-12-14T00:14:30.364Z,1000.91
2018-12-14T00:15:30.353Z,1000.92
2018-12-14T00:16:30.377Z,1000.89
2018-12-14T00:17:30.332Z,1000.92
2018-12-14T00:18:30.321Z,1000.91
2018-12-14T00:19:30.328Z,1000.86
2018-12-14T00:20:30.300Z,1000.90
2018-12-14T00:21:30.288Z,1000.92
2018-12-14T00:22:30.311Z,1000.93
2018-12-14T00:23:30.268Z,1000.87
2018-12-14T00:24:30.258Z,1000.92
2018-12-14T00:25:30.265Z,1000.94
2018-12-14T00:26:30.236Z,1000.91
2018-12-14T00:27:30.224Z,1000.91
2018-12-14T00:28:30.243Z,1000.88
2018-12-14T00:29:30.204Z,1000.81
2018-12-14T00:30:30.192Z,1000.78
2018-12-14T00:31:30.209Z,1000.79
2018-12-14T00:32:30.172Z,1000.75
2018-12-14T00:33:30.161Z,1000.78
2018-12-14T00:34:30.196Z,1000.77
2018-12-14T00:35:30.139Z,1000.79
2018-12-14T00:36:30.132Z,1000.78
2018-12-14T00:37:30.138Z,1000.68
2018-12-14T00:38:30.107Z,1000.70
2018-12-14T00:39:30.097Z,1000.76
2018-12-14T00:40:30.116Z,1000.69
2018-12-14T00:41:30.075Z,1000.74
2018-12-14T00:42:30.066Z,1000.71
2018-12-14T00:43:30.080Z,1000.73
2018-12-14T00:44:30.043Z,1000.68
2018-12-14T00:45:30.036Z,1000.70
2018-12-14T00:46:30.053Z,1000.71
2018-12-14T00:47:30.011Z,1000.71
2018-12-14T00:48:30.002Z,1000.66
2018-12-14T00:49:30.020Z,1000.71
2018-12-14T00:50:29.981Z,1000.70
2018-12-14T00:51:29.968Z,1000.64
2018-12-14T00:52:30.012Z,1000.64
2018-12-14T00:53:29.948Z,1000.68
2018-12-14T00:54:29.936Z,1000.65
2018-12-14T00:55:29.969Z,1000.70
2018-12-14T00:56:29.914Z,1000.65
2018-12-14T00:57:29.905Z,1000.68
2018-12-14T00:58:29.925Z,1000.67
2018-12-14T00:59:29.883Z,1000.69
2018-12-14T01:00:29.877Z,1000.68
2018-12-14T01:01:29.880Z,1000.75
2018-12-14T01:02:29.849Z,1000.70
2018-12-14T01:03:29.840Z,1000.73
2018-12-14T01:04:29.873Z,1000.80
2018-12-14T01:05:29.817Z,1000.79
2018-12-14T01:06:29.808Z,1000.80
2018-12-14T01:07:29.818Z,1000.80
2018-12-14T01:08:29.786Z,1000.81
2018-12-14T01:09:29.780Z,1000.83
2018-12-14T01:10:29.797Z,1000.84
2018-12-14T01:11:29.755Z,1000.84
2018-12-14T01:12:29.744Z,1000.85
2018-12-14T01:13:29.753Z,1000.86
2018-12-14T01:14:29.723Z,1000.83
2018-12-14T01:15:29.713Z,1000.90
2018-12-14T01:16:29.731Z,1000.88
2018-12-14T01:17:29.690Z,1000.87
2018-12-14T01:18:29.681Z,1000.92
2018-12-14T01:19:29.691Z,1000.89
2018-12-14T01:20:29.658Z,1000.92
2018-12-14T01:21:29.656Z,1000.88
2018-12-14T01:22:29.674Z,1000.93
2018-12-14T01:23:29.626Z,1000.90
2018-12-14T01:24:29.616Z,1000.91
2018-12-14T01:25:29.620Z,1000.91
2018-12-14T01:26:29.596Z,1000.91
2018-12-14T01:27:29.587Z,1000.90
2018-12-14T01:28:29.605Z,1000.93
2018-12-14T01:29:29.562Z,1000.95
2018-12-14T01:30:29.551Z,1000.95
2018-12-14T01:31:29.556Z,1000.91
2018-12-14T01:32:29.534Z,1000.90
2018-12-14T01:33:29.522Z,1000.98
2018-12-14T01:34:29.539Z,1000.96
2018-12-14T01:35:29.498Z,1001.03
2018-12-14T01:36:29.487Z,1001.01
2018-12-14T01:37:29.520Z,1001.00
2018-12-14T01:38:29.466Z,1001.04
2018-12-14T01:39:29.457Z,1001.00
2018-12-14T01:40:29.478Z,1001.02
2018-12-14T01:41:29.435Z,1001.06
2018-12-14T01:42:29.424Z,1001.05
2018-12-14T01:43:29.444Z,1001.04
2018-12-14T01:44:29.404Z,1001.03
2018-12-14T01:45:29.397Z,1001.08
2018-12-14T01:46:29.428Z,1001.04
2018-12-14T01:47:29.374Z,1001.07
2018-12-14T01:48:29.360Z,1001.04
2018-12-14T01:49:29.385Z,1001.07
2018-12-14T01:50:29.344Z,1001.08
2018-12-14T01:51:29.334Z,1001.07
2018-12-14T01:52:29.360Z,1001.08
2018-12-14T01:53:29.306Z,1001.10
2018-12-14T01:54:29.297Z,1001.11
2018-12-14T01:55:29.313Z,1001.13
2018-12-14T01:56:29.274Z,1001.13
2018-12-14T01:57:29.264Z,1001.10
2018-12-14T01:58:29.285Z,1001.10
2018-12-14T01:59:29.242Z,1001.09
2018-12-14T02:00:29.233Z,1001.07
2018-12-14T02:01:29.285Z,1001.09
2018-12-14T02:02:29.210Z,1001.07
2018-12-14T02:03:29.204Z,1001.07
2018-12-14T02:04:29.238Z,1001.05
2018-12-14T02:05:29.178Z,1001.07
2018-12-14T02:06:29.167Z,1001.00
2018-12-14T02:07:29.175Z,1001.06
2018-12-14T02:08:29.147Z,1001.02
2018-12-14T02:09:29.135Z,1001.04
2018-12-14T02:10:29.157Z,1001.02
2018-12-14T02:11:29.114Z,1001.02
2018-12-14T02:12:29.104Z,1000.99
2018-12-14T02:13:29.110Z,1000.97
2018-12-14T02:14:29.082Z,1001.00
2018-12-14T02:15:29.071Z,1001.01
2018-12-14T02:16:29.090Z,1000.99
2018-12-14T02:17:29.051Z,1000.97
2018-12-14T02:18:29.041Z,1000.96
2018-12-14T02:19:29.046Z,1000.95
2018-12-14T02:20:29.025Z,1000.99
2018-12-14T02:21:29.008Z,1000.94
2018-12-14T02:22:29.026Z,1000.92
2018-12-14T02:23:28.987Z,1000.89
2018-12-14T02:24:28.976Z,1000.93
2018-12-14T02:25:28.990Z,1000.90
2018-12-14T02:26:28.958Z,1000.90
2018-12-14T02:27:28.944Z,1000.91
2018-12-14T02:28:28.975Z,1000.84
2018-12-14T02:29:28.920Z,1000.89
2018-12-14T02:30:28.911Z,1000.92
2018-12-14T02:31:28.922Z,1000.89
2018-12-14T02:32:28.894Z,1000.90
2018-12-14T02:33:28.885Z,1000.89
2018-12-14T02:34:28.896Z,1000.87
2018-12-14T02:35:28.859Z,1000.86
2018-12-14T02:36:28.846Z,1000.85
2018-12-14T02:37:28.860Z,1000.88
2018-12-14T02:38:28.824Z,1000.87
2018-12-14T02:39:28.814Z,1000.83
2018-12-14T02:40:28.834Z,1000.85
2018-12-14T02:41:28.794Z,1000.84
2018-12-14T02:42:28.783Z,1000.85
2018-12-14T02:43:28.793Z,1000.88
2018-12-14T02:44:28.762Z,1000.87
2018-12-14T02:45:28.751Z,1000.86
2018-12-14T02:46:28.771Z,1000.88
2018-12-14T02:47:28.730Z,1000.85
2018-12-14T02:48:28.718Z,1000.83
2018-12-14T02:49:28.734Z,1000.86
2018-12-14T02:50:28.697Z,1000.83
2018-12-14T02:51:28.686Z,1000.85
2018-12-14T02:52:28.716Z,1000.80
2018-12-14T02:53:28.668Z,1000.78
2018-12-14T02:54:28.655Z,1000.75
2018-12-14T02:55:28.667Z,1000.80
2018-12-14T02:56:28.644Z,1000.78
2018-12-14T02:57:28.624Z,1000.78
2018-12-14T02:58:28.645Z,1000.76
2018-12-14T02:59:28.601Z,1000.74
2018-12-14T03:00:28.593Z,1000.77
2018-12-14T03:01:28.597Z,1000.76
2018-12-14T03:02:28.586Z,1000.78
2018-12-14T03:03:28.571Z,1000.77
2018-12-14T03:04:28.576Z,1000.80
2018-12-14T03:05:28.539Z,1000.80
2018-12-14T03:06:28.528Z,1000.79
2018-12-14T03:07:28.519Z,1000.77
2018-12-14T03:08:28.506Z,1000.75
2018-12-14T03:09:28.516Z,1000.71
2018-12-14T03:10:28.512Z,1000.72
2018-12-14T03:11:28.473Z,1000.70
2018-12-14T03:12:28.466Z,1000.70
2018-12-14T03:13:28.452Z,1000.69
2018-12-14T03:14:28.444Z,1000.70
2018-12-14T03:15:28.448Z,1000.68
2018-12-14T03:16:28.489Z,1000.67
2018-12-14T03:17:28.417Z,1000.67
2018-12-14T03:18:28.397Z,1000.73
2018-12-14T03:19:28.388Z,1000.69
2018-12-14T03:20:28.376Z,1000.66
2018-12-14T03:21:28.374Z,1000.66
2018-12-14T03:22:28.409Z,1000.66
2018-12-14T03:23:28.348Z,1000.69
2018-12-14T03:24:28.334Z,1000.73
2018-12-14T03:25:28.329Z,1000.68
2018-12-14T03:26:28.312Z,1000.73
2018-12-14T03:27:28.303Z,1000.69
2018-12-14T03:28:28.345Z,1000.74
2018-12-14T03:29:28.304Z,1000.70
2018-12-14T03:30:28.270Z,1000.69
2018-12-14T03:31:28.261Z,1000.69
2018-12-14T03:32:28.250Z,1000.68
2018-12-14T03:33:28.240Z,1000.72
2018-12-14T03:34:28.271Z,1000.67
2018-12-14T03:35:28.238Z,1000.68
2018-12-14T03:36:28.206Z,1000.68
2018-12-14T03:37:28.198Z,1000.70
2018-12-14T03:38:28.183Z,1000.67
2018-12-14T03:39:28.174Z,1000.73
2018-12-14T03:40:28.196Z,1000.71
2018-12-14T03:41:28.176Z,1000.68
2018-12-14T03:42:34.110Z,1000.66
2018-12-14T03:43:29.140Z,1000.64
2018-12-14T03:44:28.122Z,1000.69
2018-12-14T03:45:28.116Z,1000.68
2018-12-14T03:46:28.141Z,1000.67
2018-12-14T03:47:28.109Z,1000.63
2018-12-14T03:48:28.076Z,1000.58
2018-12-14T03:49:28.075Z,1000.56
2018-12-14T03:50:28.057Z,1000.63
2018-12-14T03:51:28.046Z,1000.58
2018-12-14T03:52:28.063Z,1000.58
2018-12-14T03:53:28.035Z,1000.53
2018-12-14T03:54:28.014Z,1000.61
2018-12-14T03:55:28.005Z,1000.52
2018-12-14T03:56:27.991Z,1000.55
2018-12-14T03:57:27.982Z,1000.57
2018-12-14T03:58:28.003Z,1000.50
2018-12-14T03:59:27.980Z,1000.57
2018-12-14T04:00:27.948Z,1000.57
2018-12-14T04:01:27.938Z,1000.58
2018-12-14T04:02:27.928Z,1000.60
2018-12-14T04:03:27.918Z,1000.60
2018-12-14T04:04:27.947Z,1000.64
2018-12-14T04:05:27.916Z,1000.62
2018-12-14T04:06:27.915Z,1000.64
2018-12-14T04:07:27.875Z,1000.69
2018-12-14T04:08:27.866Z,1000.63
2018-12-14T04:09:27.853Z,1000.59
2018-12-14T04:10:27.872Z,1000.63
2018-12-14T04:11:27.831Z,1000.66
2018-12-14T04:12:27.843Z,1000.67
2018-12-14T04:13:27.809Z,1000.73
2018-12-14T04:14:27.801Z,1000.74
2018-12-14T04:15:27.788Z,1000.72
2018-12-14T04:16:27.829Z,1000.68
2018-12-14T04:17:27.766Z,1000.72
2018-12-14T04:18:27.766Z,1000.76
2018-12-14T04:19:27.770Z,1000.73
2018-12-14T04:20:27.735Z,1000.75
2018-12-14T04:21:27.725Z,1000.74
2018-12-14T04:22:27.759Z,1000.76
2018-12-14T04:23:27.702Z,1000.73
2018-12-14T04:24:27.696Z,1000.75
2018-12-14T04:25:27.703Z,1000.72
2018-12-14T04:26:27.675Z,1000.80
2018-12-14T04:27:27.660Z,1000.76
2018-12-14T04:28:27.695Z,1000.76
2018-12-14T04:29:27.638Z,1000.74
2018-12-14T04:30:27.630Z,1000.78
2018-12-14T04:31:27.640Z,1000.75
2018-12-14T04:32:27.609Z,1000.78
2018-12-14T04:33:27.593Z,1000.76
2018-12-14T04:34:27.628Z,1000.74
2018-12-14T04:35:27.575Z,1000.78
2018-12-14T04:36:27.566Z,1000.77
2018-12-14T04:37:27.573Z,1000.73
2018-12-14T04:38:27.544Z,1000.73
2018-12-14T04:39:27.530Z,1000.69
2018-12-14T04:40:27.564Z,1000.68
2018-12-14T04:41:27.510Z,1000.73
2018-12-14T04:42:27.501Z,1000.72
2018-12-14T04:43:27.514Z,1000.66
2018-12-14T04:44:27.560Z,1000.68
2018-12-14T04:45:27.469Z,1000.69
2018-12-14T04:46:27.493Z,1000.70
2018-12-14T04:47:27.448Z,1000.71
2018-12-14T04:48:27.434Z,1000.72
2018-12-14T04:49:27.450Z,1000.74
2018-12-14T04:50:27.416Z,1000.73
2018-12-14T04:51:27.402Z,1000.78
2018-12-14T04:52:27.439Z,1000.77
2018-12-14T04:53:27.382Z,1000.74
2018-12-14T04:54:27.371Z,1000.77
2018-12-14T04:55:27.359Z,1000.75
2018-12-14T04:56:27.354Z,1000.77
2018-12-14T04:57:27.340Z,1000.75
2018-12-14T04:58:27.376Z,1000.80
2018-12-14T04:59:27.327Z,1000.82
2018-12-14T05:00:27.334Z,1000.79
2018-12-14T05:01:27.323Z,1000.82
2018-12-14T05:02:27.287Z,1000.80
2018-12-14T05:03:27.277Z,1000.84
2018-12-14T05:04:27.335Z,1000.80
2018-12-14T05:05:27.256Z,1000.80
2018-12-14T05:06:27.245Z,1000.82
2018-12-14T05:07:27.237Z,1000.86
2018-12-14T05:08:27.229Z,1000.84
2018-12-14T05:09:27.233Z,1000.83
2018-12-14T05:10:27.257Z,1000.85
2018-12-14T05:11:27.201Z,1000.86
2018-12-14T05:12:27.183Z,1000.83
2018-12-14T05:13:27.168Z,1000.83
2018-12-14T05:14:27.161Z,1000.84
2018-12-14T05:15:27.168Z,1000.82
2018-12-14T05:16:27.196Z,1000.84
2018-12-14T05:17:27.129Z,1000.87
2018-12-14T05:18:27.141Z,1000.89
2018-12-14T05:19:27.102Z,1000.93
2018-12-14T05:20:27.094Z,1000.96
2018-12-14T05:21:27.082Z,1000.93
2018-12-14T05:22:27.111Z,1000.94
2018-12-14T05:23:27.081Z,1000.94
2018-12-14T05:24:27.056Z,1000.94
2018-12-14T05:25:27.078Z,1000.96
2018-12-14T05:26:27.034Z,1000.94
2018-12-14T05:27:27.018Z,1000.88
2018-12-14T05:28:27.053Z,1000.96
2018-12-14T05:29:27.012Z,1000.97
2018-12-14T05:30:27.045Z,1000.99
2018-12-14T05:31:26.977Z,1000.96
2018-12-14T05:32:26.973Z,1000.94
2018-12-14T05:33:26.959Z,1000.96
2018-12-14T05:34:26.982Z,1000.98
2018-12-14T05:35:26.941Z,1001.03
2018-12-14T05:36:26.947Z,1000.99
2018-12-14T05:37:26.946Z,1001.00
2018-12-14T05:38:26.926Z,1001.02
2018-12-14T05:39:26.893Z,1001.02
2018-12-14T05:40:26.909Z,1001.02
2018-12-14T05:41:26.885Z,1000.98
2018-12-14T05:42:26.867Z,1000.99
2018-12-14T05:43:26.852Z,1000.99
2018-12-14T05:44:26.838Z,1000.99
2018-12-14T05:45:26.848Z,1000.98
2018-12-14T05:46:26.860Z,1001.00
2018-12-14T05:47:26.812Z,1000.96
2018-12-14T05:48:26.820Z,1000.96
2018-12-14T05:49:26.793Z,1000.97
2018-12-14T05:50:26.769Z,1000.95
2018-12-14T05:51:26.765Z,1000.90
2018-12-14T05:52:26.783Z,1000.93
2018-12-14T05:53:26.758Z,1000.95
2018-12-14T05:54:26.749Z,1000.91
2018-12-14T05:55:26.720Z,1000.94
2018-12-14T05:56:26.712Z,1001.02
2018-12-14T05:57:26.712Z,1000.94
2018-12-14T05:58:26.721Z,1000.90
2018-12-14T05:59:26.688Z,1000.92
2018-12-14T06:00:26.686Z,1000.97
2018-12-14T06:01:26.656Z,1000.95
2018-12-14T06:02:26.695Z,1000.93
2018-12-14T06:03:26.661Z,1000.95
2018-12-14T06:04:26.663Z,1001.00
2018-12-14T06:05:26.610Z,1000.91
2018-12-14T06:06:26.611Z,1000.96
2018-12-14T06:07:26.588Z,1000.91
2018-12-14T06:08:26.576Z,1000.97
2018-12-14T06:09:26.576Z,1000.96
2018-12-14T06:10:26.628Z,1000.99
2018-12-14T06:11:26.550Z,1000.95
2018-12-14T06:12:26.558Z,1000.99
2018-12-14T06:13:26.540Z,1000.98
2018-12-14T06:14:26.525Z,1000.98
2018-12-14T06:15:26.509Z,1000.96
2018-12-14T06:16:26.560Z,1000.97
2018-12-14T06:17:26.491Z,1001.01
2018-12-14T06:18:26.475Z,1000.97
2018-12-14T06:19:26.476Z,1001.00
2018-12-14T06:20:26.460Z,1001.01
2018-12-14T06:21:26.450Z,1001.07
2018-12-14T06:22:26.498Z,1001.09
2018-12-14T06:23:26.425Z,1001.07
2018-12-14T06:24:26.416Z,1001.09
2018-12-14T06:25:26.444Z,1001.10
2018-12-14T06:26:26.403Z,1001.05
2018-12-14T06:27:26.392Z,1001.07
2018-12-14T06:28:26.398Z,1001.11
2018-12-14T06:29:26.381Z,1001.11
2018-12-14T06:30:26.410Z,1001.12
2018-12-14T06:31:26.399Z,1001.15
2018-12-14T06:32:26.341Z,1001.14
2018-12-14T06:33:26.324Z,1001.10
2018-12-14T06:34:26.337Z,1001.16
2018-12-14T06:35:26.300Z,1001.12
2018-12-14T06:36:26.297Z,1001.17
2018-12-14T06:37:26.289Z,1001.14
2018-12-14T06:38:26.266Z,1001.20
2018-12-14T06:39:26.253Z,1001.23
2018-12-14T06:40:26.300Z,1001.19
2018-12-14T06:41:26.248Z,1001.20
2018-12-14T06:42:26.230Z,1001.27
2018-12-14T06:43:26.204Z,1001.19
2018-12-14T06:44:26.194Z,1001.21
2018-12-14T06:45:26.215Z,1001.20
2018-12-14T06:46:26.222Z,1001.18
2018-12-14T06:47:26.163Z,1001.20
2018-12-14T06:48:26.171Z,1001.20
2018-12-14T06:49:26.164Z,1001.21
2018-12-14T06:50:26.158Z,1001.23
2018-12-14T06:51:26.153Z,1001.21
2018-12-14T06:52:26.166Z,1001.22
2018-12-14T06:53:26.096Z,1001.28
2018-12-14T06:54:26.092Z,1001.28
2018-12-14T06:55:26.126Z,1001.27
2018-12-14T06:56:26.071Z,1001.24
2018-12-14T06:57:26.064Z,1001.33
2018-12-14T06:58:26.100Z,1001.31
2018-12-14T06:59:26.067Z,1001.27
2018-12-14T07:00:26.023Z,1001.31
2018-12-14T07:01:26.050Z,1001.31
2018-12-14T07:02:26.011Z,1001.33
2018-12-14T07:03:25.999Z,1001.34
2018-12-14T07:04:26.054Z,1001.40
2018-12-14T07:05:26.003Z,1001.38
2018-12-14T07:06:26.078Z,1001.39
2018-12-14T07:07:25.951Z,1001.36
2018-12-14T07:08:25.940Z,1001.39
2018-12-14T07:09:25.929Z,1001.42
2018-12-14T07:10:26.005Z,1001.41
2018-12-14T07:11:25.943Z,1001.48
2018-12-14T07:12:25.924Z,1001.49
2018-12-14T07:13:25.908Z,1001.42
2018-12-14T07:14:25.878Z,1001.51
2018-12-14T07:15:25.862Z,1001.46
2018-12-14T07:16:25.883Z,1001.54
2018-12-14T07:17:25.920Z,1001.55
2018-12-14T07:18:25.839Z,1001.57
2018-12-14T07:19:25.821Z,1001.60
2018-12-14T07:20:25.825Z,1001.62
2018-12-14T07:21:25.823Z,1001.67
2018-12-14T07:22:25.835Z,1001.66
2018-12-14T07:23:25.780Z,1001.64
2018-12-14T07:24:25.781Z,1001.67
2018-12-14T07:25:25.760Z,1001.70
2018-12-14T07:26:25.761Z,1001.72
2018-12-14T07:27:25.747Z,1001.70
2018-12-14T07:28:25.760Z,1001.74
2018-12-14T07:29:25.714Z,1001.72
2018-12-14T07:30:25.703Z,1001.77
2018-12-14T07:31:25.701Z,1001.76
2018-12-14T07:32:25.687Z,1001.71
2018-12-14T07:33:25.693Z,1001.75
2018-12-14T07:34:25.702Z,1001.78
2018-12-14T07:35:25.728Z,1001.83
2018-12-14T07:36:25.675Z,1001.83
2018-12-14T07:37:25.701Z,1001.82
2018-12-14T07:38:25.626Z,1001.86
2018-12-14T07:39:25.609Z,1001.91
2018-12-14T07:40:25.638Z,1001.83
2018-12-14T07:41:25.610Z,1001.84
2018-12-14T07:42:25.634Z,1001.89
2018-12-14T07:43:28.370Z,1001.92
2018-12-14T07:44:25.617Z,1001.92
2018-12-14T07:45:25.545Z,1001.92
2018-12-14T07:46:25.583Z,1001.92
2018-12-14T07:47:25.551Z,1001.91
2018-12-14T07:48:25.519Z,1001.93
2018-12-14T07:49:25.501Z,1001.94
2018-12-14T07:50:25.500Z,1001.99
2018-12-14T07:51:25.478Z,1002.04
2018-12-14T07:52:25.515Z,1002.04
2018-12-14T07:53:25.454Z,1001.99
2018-12-14T07:54:25.453Z,1002.08
2018-12-14T07:55:25.440Z,1002.05
2018-12-14T07:56:25.436Z,1002.09
2018-12-14T07:57:25.414Z,1002.08
2018-12-14T07:58:25.444Z,1002.06
2018-12-14T07:59:25.389Z,1002.12
2018-12-14T08:00:25.379Z,1002.09
2018-12-14T08:01:25.395Z,1002.09
2018-12-14T08:02:25.360Z,1002.13
2018-12-14T08:03:25.352Z,1002.12
2018-12-14T08:04:25.385Z,1002.13
2018-12-14T08:05:25.330Z,1002.12
2018-12-14T08:06:25.315Z,1002.14
2018-12-14T08:07:25.336Z,1002.21
2018-12-14T08:08:25.297Z,1002.17
2018-12-14T08:09:25.299Z,1002.23
2018-12-14T08:10:25.328Z,1002.26
2018-12-14T08:11:25.265Z,1002.25
2018-12-14T08:12:25.318Z,1002.27
2018-12-14T08:13:25.244Z,1002.31
2018-12-14T08:14:25.244Z,1002.31
2018-12-14T08:15:25.232Z,1002.22
2018-12-14T08:16:25.278Z,1002.25
2018-12-14T08:17:25.202Z,1002.26
2018-12-14T08:18:25.206Z,1002.33
2018-12-14T08:19:25.184Z,1002.34
2018-12-14T08:20:25.170Z,1002.30
2018-12-14T08:21:25.155Z,1002.32
2018-12-14T08:22:25.187Z,1002.32
2018-12-14T08:23:25.136Z,1002.33
2018-12-14T08:24:25.133Z,1002.33
2018-12-14T08:25:25.115Z,1002.34
2018-12-14T08:26:25.107Z,1002.38
2018-12-14T08:27:25.139Z,1002.41
2018-12-14T08:28:25.118Z,1002.39
2018-12-14T08:29:25.165Z,1002.44
2018-12-14T08:30:25.071Z,1002.47
2018-12-14T08:31:25.072Z,1002.45
2018-12-14T08:32:25.071Z,1002.43
2018-12-14T08:33:25.030Z,1002.45
2018-12-14T08:34:25.071Z,1002.50
2018-12-14T08:35:25.018Z,1002.49
2018-12-14T08:36:25.003Z,1002.48
2018-12-14T08:37:25.045Z,1002.45
2018-12-14T08:38:25.016Z,1002.49
2018-12-14T08:39:24.991Z,1002.56
2018-12-14T08:40:25.015Z,1002.48
2018-12-14T08:41:24.943Z,1002.52
2018-12-14T08:42:24.933Z,1002.51
2018-12-14T08:43:24.932Z,1002.56
2018-12-14T08:44:24.930Z,1002.55
2018-12-14T08:45:24.911Z,1002.55
2018-12-14T08:46:24.953Z,1002.54
2018-12-14T08:47:26.159Z,1002.55
2018-12-14T08:48:24.878Z,1002.54
2018-12-14T08:49:24.857Z,1002.58
2018-12-14T08:50:24.845Z,1002.60
2018-12-14T08:51:24.849Z,1002.59
2018-12-14T08:52:24.885Z,1002.63
2018-12-14T08:53:24.873Z,1002.61
2018-12-14T08:54:24.829Z,1002.61
2018-12-14T08:55:24.836Z,1002.61
2018-12-14T08:56:24.792Z,1002.63
2018-12-14T08:57:24.770Z,1002.61
2018-12-14T08:58:24.811Z,1002.66
2018-12-14T08:59:24.761Z,1002.66
2018-12-14T09:00:24.750Z,1002.66
2018-12-14T09:01:24.732Z,1002.68
2018-12-14T09:02:24.725Z,1002.70
2018-12-14T09:03:24.768Z,1002.68
2018-12-14T09:04:24.779Z,1002.75
2018-12-14T09:05:24.699Z,1002.71
2018-12-14T09:06:24.729Z,1002.74
2018-12-14T09:07:24.847Z,1002.74
2018-12-14T09:08:24.668Z,1002.76
2018-12-14T09:09:24.646Z,1002.78
2018-12-14T09:10:24.676Z,1002.78
2018-12-14T09:11:24.645Z,1002.80
2018-12-14T09:12:24.650Z,1002.86
2018-12-14T09:13:24.605Z,1002.82
2018-12-14T09:14:24.617Z,1002.81
2018-12-14T09:15:24.596Z,1002.87
2018-12-14T09:16:24.655Z,1002.92
2018-12-14T09:17:24.568Z,1002.92
2018-12-14T09:18:24.564Z,1002.98
2018-12-14T09:19:24.567Z,1002.92
2018-12-14T09:20:25.144Z,1003.00
2018-12-14T09:21:24.523Z,1003.00
2018-12-14T09:22:24.593Z,1002.99
2018-12-14T09:23:24.515Z,1003.02
2018-12-14T09:24:24.493Z,1003.00
2018-12-14T09:25:24.472Z,1003.03
2018-12-14T09:26:24.469Z,1002.99
2018-12-14T09:27:24.465Z,1003.00
2018-12-14T09:28:24.488Z,1003.07
2018-12-14T09:29:24.440Z,1003.07
2018-12-14T09:30:24.427Z,1003.05
2018-12-14T09:31:24.425Z,1003.02
2018-12-14T09:32:24.402Z,1003.04
2018-12-14T09:33:24.405Z,1003.06
2018-12-14T09:34:24.417Z,1003.07
2018-12-14T09:35:24.453Z,1003.07
2018-12-14T09:36:24.357Z,1003.08
2018-12-14T09:37:24.356Z,1003.04
2018-12-14T09:38:24.340Z,1003.03
2018-12-14T09:39:24.320Z,1002.97
2018-12-14T09:40:24.366Z,1002.94
2018-12-14T09:41:24.313Z,1002.99
2018-12-14T09:42:24.291Z,1002.99
2018-12-14T09:43:24.286Z,1002.99
2018-12-14T09:44:24.280Z,1002.99
2018-12-14T09:45:24.279Z,1002.99
2018-12-14T09:46:24.308Z,1003.00
2018-12-14T09:47:24.242Z,1002.98
2018-12-14T09:48:24.227Z,1002.92
2018-12-14T09:49:24.234Z,1002.96
2018-12-14T09:50:24.231Z,1002.96
2018-12-14T09:51:24.195Z,1002.97
2018-12-14T09:52:24.257Z,1003.00
2018-12-14T09:53:24.176Z,1002.97
2018-12-14T09:54:24.161Z,1002.98
2018-12-14T09:55:24.171Z,1002.98
2018-12-14T09:56:24.224Z,1002.95
2018-12-14T09:57:24.130Z,1002.96
2018-12-14T09:58:24.184Z,1002.94
2018-12-14T09:59:24.111Z,1002.95
2018-12-14T10:00:24.098Z,1002.91
2018-12-14T10:01:24.108Z,1002.96
2018-12-14T10:02:24.110Z,1002.95
2018-12-14T10:03:24.071Z,1002.93
2018-12-14T10:04:24.111Z,1002.94
2018-12-14T10:05:24.116Z,1002.90
2018-12-14T10:06:24.036Z,1002.98
2018-12-14T10:07:24.034Z,1002.94
2018-12-14T10:08:24.047Z,1002.92
2018-12-14T10:09:24.022Z,1002.95
2018-12-14T10:10:24.043Z,1002.89
2018-12-14T10:11:23.990Z,1002.93
2018-12-14T10:12:23.985Z,1002.89
2018-12-14T10:13:23.974Z,1002.90
2018-12-14T10:14:23.980Z,1002.92
2018-12-14T10:15:23.957Z,1002.93
2018-12-14T10:16:23.955Z,1002.94
2018-12-14T10:17:23.920Z,1002.97
2018-12-14T10:18:23.911Z,1002.92
2018-12-14T10:19:23.906Z,1002.86
2018-12-14T10:20:23.888Z,1002.89
2018-12-14T10:21:23.877Z,1002.87
2018-12-14T10:22:23.905Z,1002.87
2018-12-14T10:23:23.847Z,1002.84
2018-12-14T10:24:23.836Z,1002.82
2018-12-14T10:25:23.830Z,1002.82
2018-12-14T10:26:23.816Z,1002.78
2018-12-14T10:27:23.820Z,1002.80
2018-12-14T10:28:23.831Z,1002.76
2018-12-14T10:29:23.816Z,1002.75
2018-12-14T10:30:23.773Z,1002.75
2018-12-14T10:31:23.767Z,1002.69
2018-12-14T10:32:23.753Z,1002.70
2018-12-14T10:33:23.753Z,1002.73
2018-12-14T10:34:23.768Z,1002.65
2018-12-14T10:35:23.732Z,1002.66
2018-12-14T10:36:23.736Z,1002.63
2018-12-14T10:37:23.698Z,1002.60
2018-12-14T10:38:23.696Z,1002.56
2018-12-14T10:39:23.689Z,1002.60
2018-12-14T10:40:23.697Z,1002.61
2018-12-14T10:41:23.663Z,1002.61
2018-12-14T10:42:23.684Z,1002.57
2018-12-14T10:43:23.633Z,1002.57
2018-12-14T10:44:23.638Z,1002.59
2018-12-14T10:45:23.628Z,1002.58
2018-12-14T10:46:23.631Z,1002.53
2018-12-14T10:47:23.593Z,1002.55
2018-12-14T10:48:23.608Z,1002.56
2018-12-14T10:49:23.583Z,1002.54
2018-12-14T10:50:23.556Z,1002.53
2018-12-14T10:51:23.548Z,1002.52
2018-12-14T10:52:23.577Z,1002.51
2018-12-14T10:53:23.527Z,1002.50
2018-12-14T10:54:23.520Z,1002.54
2018-12-14T10:55:23.504Z,1002.57
2018-12-14T10:56:23.492Z,1002.55
2018-12-14T10:57:23.540Z,1002.58
2018-12-14T10:58:23.515Z,1002.54
2018-12-14T10:59:23.463Z,1002.55
2018-12-14T11:00:23.465Z,1002.55
2018-12-14T11:01:23.453Z,1002.55
2018-12-14T11:02:23.430Z,1002.52
2018-12-14T11:03:23.417Z,1002.53
2018-12-14T11:04:23.978Z,1002.52
2018-12-14T11:05:23.418Z,1002.53
2018-12-14T11:06:23.400Z,1002.54
2018-12-14T11:07:23.378Z,1002.52
2018-12-14T11:08:23.370Z,1002.50
2018-12-14T11:09:23.356Z,1002.49
2018-12-14T11:10:23.397Z,1002.48
2018-12-14T11:11:23.335Z,1002.50
2018-12-14T11:12:23.336Z,1002.54
2018-12-14T11:13:23.324Z,1002.51
2018-12-14T11:14:23.338Z,1002.47
2018-12-14T11:15:23.291Z,1002.46
2018-12-14T11:16:23.554Z,1002.45
2018-12-14T11:17:23.380Z,1002.40
2018-12-14T11:18:23.319Z,1002.47
2018-12-14T11:19:23.297Z,1002.47
2018-12-14T11:20:23.240Z,1002.47
2018-12-14T11:21:23.227Z,1002.51
2018-12-14T11:22:23.262Z,1002.44
2018-12-14T11:23:23.205Z,1002.45
2018-12-14T11:24:23.192Z,1002.46
2018-12-14T11:25:23.197Z,1002.47
2018-12-14T11:26:23.178Z,1002.48
2018-12-14T11:27:23.186Z,1002.45
2018-12-14T11:28:23.701Z,1002.45
2018-12-14T11:29:23.175Z,1002.47
2018-12-14T11:30:23.134Z,1002.51
2018-12-14T11:31:23.155Z,1002.49
2018-12-14T11:32:23.158Z,1002.50
2018-12-14T11:33:23.144Z,1002.47
2018-12-14T11:34:29.538Z,1002.48
2018-12-14T11:35:24.094Z,1002.49
2018-12-14T11:36:23.163Z,1002.42
2018-12-14T11:37:23.076Z,1002.42
2018-12-14T11:38:23.059Z,1002.50
2018-12-14T11:39:23.053Z,1002.45
2018-12-14T11:40:23.108Z,1002.50
2018-12-14T11:41:23.018Z,1002.47
2018-12-14T11:42:23.001Z,1002.43
2018-12-14T11:43:23.016Z,1002.44
2018-12-14T11:44:22.978Z,1002.46
2018-12-14T11:45:22.971Z,1002.45
2018-12-14T11:46:22.985Z,1002.45
2018-12-14T11:47:22.943Z,1002.46
2018-12-14T11:48:23.054Z,1002.47
2018-12-14T11:49:22.924Z,1002.45
2018-12-14T11:50:22.913Z,1002.46
2018-12-14T11:51:22.904Z,1002.48
2018-12-14T11:52:22.929Z,1002.48
2018-12-14T11:53:22.900Z,1002.49
2018-12-14T11:54:22.893Z,1002.45
2018-12-14T11:55:22.870Z,1002.43
2018-12-14T11:56:22.957Z,1002.42
2018-12-14T11:57:22.858Z,1002.39
2018-12-14T11:58:22.998Z,1002.42
2018-12-14T11:59:22.846Z,1002.47
2018-12-14T12:00:22.920Z,1002.41
2018-12-14T12:01:22.835Z,1002.42
2018-12-14T12:02:22.792Z,1002.39
2018-12-14T12:03:22.814Z,1002.39
2018-12-14T12:04:22.839Z,1002.38
2018-12-14T12:05:22.747Z,1002.36